Time;durP1;ratioP1;P1;durP2;ratioP2;P2;SDS_P1;SDS_P2;PMS_P1;PMS_P2;Temp;Humidity;BMP_temperature;BMP_pressure;BME280_temperature;BME280_humidity;BME280_pressure;Samples;Min_cycle;Max_cycle;Signal;HPM_P1;HPM_P2
2022/08/02 00:00:43;;;;;;;0.20;0.20;;;14.70;69.30;;;;;;4841626;29;20038;-76
2022/08/02 00:03:09;;;;;;;0.25;0.25;;;14.70;69.40;;;;;;4841929;29;20489;-76
2022/08/02 00:05:34;;;;;;;0.40;0.30;;;14.70;69.40;;;;;;4841270;29;20046;-76
2022/08/02 00:08:00;;;;;;;0.40;0.30;;;14.70;69.50;;;;;;4858150;29;20038;-76
2022/08/02 00:10:26;;;;;;;0.40;0.35;;;14.70;69.50;;;;;;4858616;29;20061;-76
2022/08/02 00:12:52;;;;;;;0.47;0.40;;;14.70;69.60;;;;;;4858174;29;20049;-80
2022/08/02 00:15:18;;;;;;;0.30;0.30;;;14.70;69.60;;;;;;4841640;29;20044;-79
2022/08/02 00:17:44;;;;;;;0.32;0.32;;;14.60;69.60;;;;;;4841345;29;20033;-78
2022/08/02 00:20:11;;;;;;;0.40;0.40;;;14.70;69.70;;;;;;4858878;29;20065;-77
2022/08/02 00:22:37;;;;;;;0.40;0.30;;;14.70;69.80;;;;;;4827609;29;20072;-78
2022/08/02 00:25:03;;;;;;;0.28;0.20;;;14.70;69.90;;;;;;4861360;29;20168;-78
2022/08/02 00:27:29;;;;;;;0.20;0.20;;;14.70;69.90;;;;;;4861444;29;20405;-79
2022/08/02 00:29:55;;;;;;;0.30;0.30;;;14.60;69.90;;;;;;4861499;29;20098;-78
2022/08/02 00:32:22;;;;;;;0.93;0.35;;;14.60;70.00;;;;;;4844461;29;20384;-79
2022/08/02 00:34:48;;;;;;;0.20;0.20;;;14.70;70.10;;;;;;4844261;29;20407;-79
2022/08/02 00:37:14;;;;;;;0.20;0.20;;;14.60;70.00;;;;;;4829170;29;20438;-79
2022/08/02 00:39:41;;;;;;;0.47;0.40;;;14.60;70.20;;;;;;4828905;29;20042;-78
2022/08/02 00:42:07;;;;;;;0.63;0.30;;;14.60;70.20;;;;;;4844944;29;20120;-78
2022/08/02 00:44:33;;;;;;;0.20;0.20;;;14.60;70.20;;;;;;4843889;29;20148;-78
2022/08/02 00:46:58;;;;;;;0.55;0.30;;;14.60;70.30;;;;;;4844361;29;20050;-79
2022/08/02 00:49:24;;;;;;;0.10;0.10;;;14.60;70.30;;;;;;4860771;29;20140;-79
2022/08/02 00:51:50;;;;;;;0.10;0.10;;;14.60;70.30;;;;;;4843874;29;20524;-80
2022/08/02 00:54:17;;;;;;;0.47;0.35;;;14.60;70.40;;;;;;4860833;29;20124;-79
2022/08/02 00:56:42;;;;;;;0.30;0.30;;;14.60;70.40;;;;;;4860862;29;20065;-79
2022/08/02 00:59:08;;;;;;;0.20;0.20;;;14.60;70.50;;;;;;4827242;29;20456;-78
2022/08/02 01:01:41;;;;;;;0.10;0.10;;;14.50;70.50;;;;;;4843561;29;20053;-79
2022/08/02 01:04:10;;;;;;;0.20;0.20;;;14.70;70.80;;;;;;4845226;29;20065;-79
2022/08/02 01:06:38;;;;;;;0.20;0.20;;;14.50;70.80;;;;;;4860320;29;20029;-79
2022/08/02 01:09:05;;;;;;;0.55;0.20;;;14.50;70.90;;;;;;4860120;29;20045;-79
2022/08/02 01:11:31;;;;;;;0.28;0.20;;;14.40;70.90;;;;;;4843532;29;20038;-79
2022/08/02 01:14:10;;;;;;;0.25;0.25;;;14.50;71.00;;;;;;4828624;29;20034;-79
2022/08/02 01:16:42;;;;;;;0.30;0.20;;;14.40;71.10;;;;;;4843381;29;20116;-79
2022/08/02 01:19:31;;;;;;;0.40;0.30;;;14.40;71.10;;;;;;4828404;29;20487;-79
2022/08/02 01:22:15;;;;;;;0.30;0.30;;;14.40;71.30;;;;;;4843571;29;20037;-79
2022/08/02 01:25:07;;;;;;;0.30;0.30;;;14.30;71.40;;;;;;4860057;29;20046;-79
2022/08/02 01:27:48;;;;;;;0.13;0.13;;;14.30;71.40;;;;;;4830530;29;20053;-79
2022/08/02 01:30:16;;;;;;;0.30;0.30;;;14.30;71.40;;;;;;4843429;29;20050;-79
2022/08/02 01:32:47;;;;;;;0.20;0.20;;;14.30;71.40;;;;;;4843281;29;20480;-79
2022/08/02 01:35:20;;;;;;;0.40;0.20;;;14.20;71.40;;;;;;4842257;29;20038;-79
2022/08/02 01:37:55;;;;;;;0.40;0.30;;;14.20;71.40;;;;;;4860309;29;20124;-79
2022/08/02 01:40:29;;;;;;;0.57;0.20;;;14.20;71.50;;;;;;4828238;29;20046;-79
2022/08/02 01:42:57;;;;;;;0.20;0.20;;;14.30;71.60;;;;;;4856729;29;20038;-79
2022/08/02 01:45:28;;;;;;;0.28;0.20;;;14.20;71.70;;;;;;4859713;29;20106;-79
2022/08/02 01:47:54;;;;;;;0.20;0.20;;;14.10;71.70;;;;;;4843342;29;20397;-79
2022/08/02 01:50:26;;;;;;;0.22;0.22;;;14.10;71.80;;;;;;4826829;29;20046;-79
2022/08/02 01:52:56;;;;;;;0.50;0.25;;;14.10;71.80;;;;;;4859356;29;21105;-79
2022/08/02 01:55:26;;;;;;;0.28;0.20;;;14.10;71.90;;;;;;4859859;29;20088;-79
2022/08/02 01:57:56;;;;;;;0.25;0.25;;;14.10;72.00;;;;;;4842426;29;20469;-79
2022/08/02 02:00:25;;;;;;;0.20;0.20;;;14.10;72.00;;;;;;4843016;29;20042;-79
2022/08/02 02:02:54;;;;;;;0.15;0.15;;;14.00;72.00;;;;;;4827799;29;20650;-79
2022/08/02 02:05:23;;;;;;;0.20;0.20;;;14.10;72.10;;;;;;4827466;29;20045;-79
2022/08/02 02:07:52;;;;;;;0.10;0.10;;;14.10;72.10;;;;;;4827457;29;20072;-79
2022/08/02 02:10:24;;;;;;;0.20;0.20;;;14.10;72.10;;;;;;4859856;29;20049;-79
2022/08/02 02:12:52;;;;;;;0.25;0.25;;;14.10;72.10;;;;;;4858252;29;20179;-79
2022/08/02 02:15:18;;;;;;;0.30;0.30;;;14.10;72.10;;;;;;4827684;29;20405;-79
2022/08/02 02:17:46;;;;;;;0.35;0.22;;;14.00;72.00;;;;;;4842621;29;20572;-79
2022/08/02 02:20:15;;;;;;;0.30;0.30;;;14.10;72.00;;;;;;4842935;29;20121;-79
2022/08/02 02:22:42;;;;;;;0.20;0.20;;;14.10;72.00;;;;;;4859361;29;20108;-79
2022/08/02 02:25:10;;;;;;;0.20;0.20;;;14.10;72.00;;;;;;4842710;29;20064;-79
2022/08/02 02:27:42;;;;;;;0.43;0.30;;;14.10;72.00;;;;;;4843227;29;20049;-79
2022/08/02 02:30:08;;;;;;;0.30;0.30;;;14.10;71.90;;;;;;4859321;29;20508;-79
2022/08/02 02:32:35;;;;;;;0.77;0.40;;;14.20;71.90;;;;;;4827502;29;20030;-79
2022/08/02 02:35:03;;;;;;;0.20;0.20;;;14.10;71.90;;;;;;4843059;29;20450;-79
2022/08/02 02:37:31;;;;;;;0.30;0.30;;;14.20;71.90;;;;;;4812464;29;20065;-79
2022/08/02 02:39:57;;;;;;;0.20;0.20;;;14.10;71.90;;;;;;4858817;29;20081;-79
2022/08/02 02:42:29;;;;;;;0.35;0.30;;;14.10;71.90;;;;;;4859485;29;20124;-79
2022/08/02 02:44:55;;;;;;;0.95;0.20;;;14.10;72.00;;;;;;4841756;29;20053;-79
2022/08/02 02:47:22;;;;;;;0.20;0.20;;;14.10;72.10;;;;;;4842367;29;20075;-79
2022/08/02 02:49:49;;;;;;;0.38;0.38;;;14.10;72.10;;;;;;4842597;29;20132;-79
2022/08/02 02:52:16;;;;;;;0.32;0.30;;;14.20;72.20;;;;;;4858495;29;20117;-79
2022/08/02 02:54:46;;;;;;;0.30;0.30;;;14.10;72.20;;;;;;4826958;29;20037;-80
2022/08/02 02:57:13;;;;;;;0.20;0.20;;;14.20;72.20;;;;;;4842599;29;20042;-79
2022/08/02 02:59:39;;;;;;;0.20;0.20;;;14.10;72.20;;;;;;4842572;29;20041;-79
2022/08/02 03:02:06;;;;;;;0.85;0.30;;;14.20;72.20;;;;;;4842155;29;20553;-79
2022/08/02 03:04:32;;;;;;;0.30;0.20;;;14.10;72.90;;;;;;4842588;29;20100;-79
2022/08/02 03:06:59;;;;;;;0.47;0.40;;;14.20;72.40;;;;;;4858801;29;20101;-79
2022/08/02 03:09:25;;;;;;;0.88;0.35;;;14.10;72.40;;;;;;4858541;29;20044;-79
2022/08/02 03:11:54;;;;;;;0.30;0.30;;;14.10;72.40;;;;;;4859039;29;20038;-79
2022/08/02 03:14:19;;;;;;;0.30;0.30;;;14.10;72.40;;;;;;4858677;29;20390;-79
2022/08/02 03:16:53;;;;;;;0.30;0.30;;;14.10;72.40;;;;;;4842576;29;20049;-79
2022/08/02 03:19:20;;;;;;;1.02;0.22;;;14.10;72.50;;;;;;4841676;29;20045;-80
2022/08/02 03:21:47;;;;;;;0.30;0.30;;;14.10;72.60;;;;;;4842207;29;20044;-79
2022/08/02 03:24:14;;;;;;;0.30;0.30;;;14.10;72.60;;;;;;4858976;29;20049;-79
2022/08/02 03:26:40;;;;;;;0.30;0.30;;;14.00;72.70;;;;;;4858819;29;20033;-79
2022/08/02 03:29:07;;;;;;;0.40;0.40;;;14.10;72.80;;;;;;4858432;29;20046;-79
2022/08/02 03:31:34;;;;;;;0.50;0.50;;;14.00;72.80;;;;;;4826801;29;20060;-79
2022/08/02 03:34:01;;;;;;;0.30;0.30;;;13.90;72.80;;;;;;4858299;29;20034;-79
2022/08/02 03:36:31;;;;;;;0.47;0.32;;;14.00;73.00;;;;;;4858344;29;20564;-79
2022/08/02 03:38:58;;;;;;;0.47;0.40;;;13.90;73.00;;;;;;4842097;29;20509;-79
2022/08/02 03:41:24;;;;;;;0.20;0.20;;;14.00;73.10;;;;;;4840903;29;20045;-79
2022/08/02 03:43:51;;;;;;;0.40;0.40;;;14.00;73.10;;;;;;4858699;29;20037;-79
2022/08/02 03:46:20;;;;;;;0.30;0.30;;;14.00;73.00;;;;;;4826040;29;20041;-79
2022/08/02 03:48:47;;;;;;;0.50;0.20;;;14.00;73.00;;;;;;4858295;29;20393;-79
2022/08/02 03:51:14;;;;;;;0.20;0.20;;;14.10;73.00;;;;;;4826787;29;20408;-79
2022/08/02 03:53:40;;;;;;;0.75;0.60;;;14.10;73.00;;;;;;4858093;29;20120;-79
2022/08/02 03:56:06;;;;;;;1.02;0.40;;;14.10;72.90;;;;;;4841555;29;20037;-79
2022/08/02 03:58:33;;;;;;;0.50;0.30;;;14.20;72.90;;;;;;4860545;29;20373;-79
2022/08/02 04:00:58;;;;;;;0.30;0.30;;;14.20;72.90;;;;;;4861346;29;20045;-79
2022/08/02 04:03:25;;;;;;;0.30;0.30;;;14.20;72.90;;;;;;4844791;29;20056;-79
2022/08/02 04:05:51;;;;;;;0.47;0.32;;;14.30;72.90;;;;;;4845213;29;20053;-79
2022/08/02 04:08:17;;;;;;;0.22;0.22;;;14.30;72.90;;;;;;4844521;29;20030;-79
2022/08/02 04:13:23;;;;;;;0.30;0.30;;;14.30;73.00;;;;;;4861492;29;20037;-80
2022/08/02 04:15:52;;;;;;;0.22;0.22;;;14.30;72.90;;;;;;4844861;29;20080;-79
2022/08/02 04:18:21;;;;;;;0.52;0.40;;;14.30;72.90;;;;;;4845023;29;20046;-80
2022/08/02 04:20:48;;;;;;;0.30;0.30;;;14.40;73.00;;;;;;4861228;29;20049;-79
2022/08/02 04:23:16;;;;;;;0.40;0.40;;;14.50;73.00;;;;;;4844445;29;20038;-80
2022/08/02 04:25:43;;;;;;;0.35;0.35;;;14.50;73.00;;;;;;4845255;29;20049;-80
2022/08/02 04:28:09;;;;;;;0.30;0.30;;;14.50;73.00;;;;;;4844378;29;20045;-79
2022/08/02 04:30:36;;;;;;;0.80;0.50;;;14.50;73.10;;;;;;4861041;29;20686;-79
2022/08/02 04:33:03;;;;;;;0.63;0.40;;;14.50;73.10;;;;;;4844670;29;20041;-79
2022/08/02 04:35:28;;;;;;;0.30;0.30;;;14.50;73.20;;;;;;4843505;29;20037;-79
2022/08/02 04:37:55;;;;;;;0.20;0.20;;;14.50;73.20;;;;;;4844407;29;20136;-79
2022/08/02 04:40:20;;;;;;;0.35;0.30;;;14.60;73.30;;;;;;4862413;29;20046;-77
2022/08/02 04:42:46;;;;;;;0.40;0.40;;;14.50;73.30;;;;;;4829671;29;20045;-75
2022/08/02 04:45:12;;;;;;;0.38;0.38;;;14.40;73.40;;;;;;4861228;29;20091;-75
2022/08/02 04:47:38;;;;;;;0.40;0.30;;;14.50;73.40;;;;;;4860672;29;20492;-76
2022/08/02 04:50:04;;;;;;;1.02;0.50;;;14.50;73.50;;;;;;4860748;29;20050;-76
2022/08/02 04:52:29;;;;;;;0.30;0.30;;;14.60;73.60;;;;;;4860541;29;20038;-75
2022/08/02 04:54:55;;;;;;;0.20;0.20;;;14.60;73.60;;;;;;4860493;29;20037;-76
2022/08/02 05:00:05;;;;;;;0.38;0.30;;;14.60;73.50;;;;;;4860396;29;20046;-75
2022/08/02 05:02:30;;;;;;;0.28;0.28;;;14.70;73.40;;;;;;4844349;29;20037;-76
2022/08/02 05:04:56;;;;;;;0.52;0.40;;;14.80;73.50;;;;;;4860494;29;20053;-76
2022/08/02 05:07:22;;;;;;;0.25;0.25;;;14.70;73.40;;;;;;4860595;29;20038;-76
2022/08/02 05:09:47;;;;;;;0.30;0.30;;;14.80;73.50;;;;;;4843413;29;20041;-75
2022/08/02 05:12:13;;;;;;;0.40;0.40;;;14.80;73.50;;;;;;4860884;29;20544;-78
2022/08/02 05:14:39;;;;;;;0.45;0.35;;;14.80;74.10;;;;;;4844500;29;20060;-78
2022/08/02 05:17:04;;;;;;;0.40;0.38;;;14.90;73.60;;;;;;4861212;29;20038;-76
2022/08/02 05:19:30;;;;;;;0.30;0.30;;;14.90;73.50;;;;;;4860596;29;20037;-75
2022/08/02 05:21:56;;;;;;;0.65;0.40;;;15.00;73.60;;;;;;4844310;29;20061;-75
2022/08/02 05:24:21;;;;;;;0.43;0.30;;;15.00;73.60;;;;;;4843275;29;20547;-75
2022/08/02 05:26:47;;;;;;;0.40;0.30;;;15.00;73.50;;;;;;4860585;29;20412;-75
2022/08/02 05:29:13;;;;;;;0.95;0.50;;;15.10;73.50;;;;;;4860388;29;20485;-75
2022/08/02 05:31:38;;;;;;;0.30;0.30;;;15.20;73.50;;;;;;4860287;29;20037;-75
2022/08/02 05:34:04;;;;;;;0.52;0.30;;;15.20;73.50;;;;;;4860627;29;20037;-75
2022/08/02 05:36:30;;;;;;;0.30;0.30;;;15.20;73.50;;;;;;4860727;29;20045;-75
2022/08/02 05:38:56;;;;;;;0.30;0.30;;;15.20;73.40;;;;;;4859807;29;20515;-75
2022/08/02 05:41:21;;;;;;;0.43;0.30;;;15.30;73.40;;;;;;4860578;29;20117;-75
2022/08/02 05:43:47;;;;;;;0.57;0.35;;;15.30;73.30;;;;;;4860159;29;20515;-75
2022/08/02 05:46:13;;;;;;;0.28;0.28;;;15.40;73.30;;;;;;4843077;29;20580;-75
2022/08/02 05:48:39;;;;;;;0.90;0.50;;;15.40;73.10;;;;;;4843467;29;20128;-75
2022/08/02 05:51:09;;;;;;;0.40;0.40;;;15.50;73.20;;;;;;4859960;29;20098;-75
2022/08/02 05:53:45;;;;;;;0.40;0.40;;;15.60;73.20;;;;;;4859910;29;20041;-75
2022/08/02 05:56:22;;;;;;;0.13;0.13;;;15.70;73.30;;;;;;4843249;29;20396;-75
2022/08/02 05:58:55;;;;;;;0.50;0.40;;;15.70;73.10;;;;;;4859859;29;20045;-75
2022/08/02 06:01:31;;;;;;;0.20;0.20;;;15.80;73.10;;;;;;4859735;29;20055;-75
2022/08/02 06:04:00;;;;;;;0.40;0.30;;;15.80;73.00;;;;;;4859490;29;20097;-75
2022/08/02 06:06:28;;;;;;;0.30;0.30;;;15.90;73.00;;;;;;4859765;29;20050;-75
2022/08/02 06:08:59;;;;;;;0.63;0.30;;;16.00;73.00;;;;;;4860333;29;20037;-75
2022/08/02 06:11:34;;;;;;;0.47;0.30;;;16.00;72.80;;;;;;4859769;29;20038;-75
2022/08/02 06:14:01;;;;;;;0.20;0.20;;;16.10;72.80;;;;;;4843327;29;20037;-75
2022/08/02 06:16:27;;;;;;;0.22;0.22;;;16.20;72.80;;;;;;4857919;29;20531;-75
2022/08/02 06:18:53;;;;;;;0.25;0.25;;;16.30;72.60;;;;;;4859950;29;20120;-75
2022/08/02 06:21:21;;;;;;;0.30;0.30;;;16.40;72.50;;;;;;4860096;29;20378;-75
2022/08/02 06:23:47;;;;;;;0.35;0.30;;;16.50;72.40;;;;;;4860401;29;20053;-75
2022/08/02 06:26:15;;;;;;;0.20;0.20;;;16.70;72.30;;;;;;4843445;29;20061;-75
2022/08/02 06:28:42;;;;;;;0.22;0.22;;;16.70;72.10;;;;;;4843007;29;20038;-75
2022/08/02 06:31:08;;;;;;;0.65;0.30;;;16.80;72.10;;;;;;4859523;29;20057;-75
2022/08/02 06:33:34;;;;;;;0.30;0.30;;;16.90;72.00;;;;;;4859329;29;20034;-75
2022/08/02 06:36:08;;;;;;;0.30;0.30;;;16.90;71.80;;;;;;4859071;29;20480;-75
2022/08/02 06:38:51;;;;;;;0.30;0.30;;;17.10;72.00;;;;;;4843158;29;20038;-75
2022/08/02 06:41:18;;;;;;;0.30;0.30;;;17.10;71.90;;;;;;4859316;29;20048;-75
2022/08/02 06:43:52;;;;;;;0.40;0.40;;;17.20;71.90;;;;;;4859355;29;20041;-75
2022/08/02 06:46:18;;;;;;;2.08;0.50;;;17.30;71.90;;;;;;4859664;29;20125;-75
2022/08/02 06:48:44;;;;;;;0.80;0.55;;;17.30;71.80;;;;;;4842439;29;20071;-75
2022/08/02 06:51:11;;;;;;;0.40;0.40;;;17.40;71.80;;;;;;4859050;29;20505;-75
2022/08/02 06:53:36;;;;;;;0.40;0.40;;;17.50;71.80;;;;;;4858941;29;20041;-75
2022/08/02 06:56:02;;;;;;;0.30;0.30;;;17.60;71.80;;;;;;4859485;29;20125;-75
2022/08/02 06:58:28;;;;;;;0.82;0.40;;;17.60;71.90;;;;;;4859543;29;20519;-75
2022/08/02 07:00:54;;;;;;;0.95;0.50;;;17.70;71.90;;;;;;4859025;29;20044;-75
2022/08/02 07:03:20;;;;;;;0.40;0.40;;;17.70;71.90;;;;;;4858986;29;20132;-75
2022/08/02 07:05:47;;;;;;;0.68;0.40;;;17.80;72.00;;;;;;4859271;29;20053;-75
2022/08/02 07:08:14;;;;;;;0.30;0.30;;;17.90;72.00;;;;;;4827223;29;20061;-75
2022/08/02 07:10:40;;;;;;;0.63;0.55;;;18.00;72.00;;;;;;4842748;29;20036;-75
2022/08/02 07:13:06;;;;;;;0.98;0.60;;;18.10;71.90;;;;;;4858683;29;20132;-75
2022/08/02 07:15:32;;;;;;;0.50;0.50;;;18.20;71.80;;;;;;4841994;29;20103;-75
2022/08/02 07:17:57;;;;;;;0.30;0.30;;;18.20;71.60;;;;;;4842626;29;20042;-75
2022/08/02 07:20:23;;;;;;;0.63;0.43;;;18.50;71.70;;;;;;4858626;29;20045;-75
2022/08/02 07:22:49;;;;;;;0.40;0.40;;;18.60;71.40;;;;;;4858768;29;20076;-75
2022/08/02 07:25:15;;;;;;;0.50;0.50;;;18.70;71.30;;;;;;4858464;29;20042;-75
2022/08/02 07:27:41;;;;;;;0.60;0.47;;;18.90;71.00;;;;;;4842522;29;20408;-75
2022/08/02 07:30:08;;;;;;;0.30;0.30;;;19.10;70.80;;;;;;4858436;29;20041;-75
2022/08/02 07:32:33;;;;;;;0.30;0.30;;;19.30;70.50;;;;;;4859484;29;20874;-76
2022/08/02 07:35:00;;;;;;;1.27;0.60;;;19.50;70.40;;;;;;4845239;29;20049;-76
2022/08/02 07:37:29;;;;;;;0.82;0.70;;;19.70;70.20;;;;;;4862116;29;20112;-75
2022/08/02 07:39:55;;;;;;;0.50;0.50;;;19.90;69.90;;;;;;4862081;29;20104;-74
2022/08/02 07:42:21;;;;;;;1.08;0.80;;;20.10;69.60;;;;;;4861962;29;20512;-73
2022/08/02 07:44:46;;;;;;;1.48;0.93;;;20.20;69.30;;;;;;4861882;29;20374;-76
2022/08/02 07:47:12;;;;;;;1.00;0.90;;;20.40;69.20;;;;;;4845005;29;20497;-76
2022/08/02 07:49:38;;;;;;;0.93;0.82;;;20.50;69.80;;;;;;4861563;29;20040;-76
2022/08/02 07:52:04;;;;;;;0.80;0.70;;;20.70;69.00;;;;;;4845368;29;20041;-76
2022/08/02 07:54:29;;;;;;;1.23;0.93;;;20.80;68.90;;;;;;4861850;29;20036;-76
2022/08/02 07:56:55;;;;;;;1.83;1.10;;;21.00;68.90;;;;;;4845535;29;20048;-75
2022/08/02 07:59:21;;;;;;;1.45;1.10;;;21.10;68.70;;;;;;4844026;29;20137;-75
2022/08/02 08:01:48;;;;;;;1.13;1.02;;;21.10;68.60;;;;;;4862055;29;20176;-75
2022/08/02 08:04:16;;;;;;;1.48;1.10;;;21.20;68.60;;;;;;4861139;29;20076;-74
2022/08/02 08:06:42;;;;;;;0.77;0.77;;;21.30;68.60;;;;;;4861814;29;20515;-74
2022/08/02 08:09:09;;;;;;;1.52;0.98;;;21.40;68.70;;;;;;4861680;29;20045;-74
2022/08/02 08:11:35;;;;;;;1.15;1.05;;;21.40;68.70;;;;;;4845415;29;20484;-74
2022/08/02 08:14:01;;;;;;;1.77;1.15;;;21.60;68.80;;;;;;4844942;29;20025;-74
2022/08/02 08:16:28;;;;;;;1.67;1.30;;;21.80;68.60;;;;;;4861925;29;20053;-74
2022/08/02 08:18:54;;;;;;;1.90;1.23;;;22.00;68.40;;;;;;4861988;29;20404;-74
2022/08/02 08:21:20;;;;;;;1.70;1.10;;;22.10;68.10;;;;;;4861221;29;20057;-74
2022/08/02 08:23:46;;;;;;;1.00;0.93;;;22.20;68.00;;;;;;4860986;29;20077;-73
2022/08/02 08:26:12;;;;;;;1.33;1.00;;;22.30;68.00;;;;;;4861171;29;20049;-74
2022/08/02 08:28:38;;;;;;;1.15;1.05;;;22.50;67.90;;;;;;4861104;29;20037;-74
2022/08/02 08:31:03;;;;;;;2.33;1.20;;;22.70;67.70;;;;;;4844181;29;20038;-74
2022/08/02 08:33:29;;;;;;;1.70;1.23;;;22.80;67.70;;;;;;4860794;29;20053;-74
2022/08/02 08:35:55;;;;;;;0.77;0.73;;;22.90;67.40;;;;;;4861495;29;20177;-74
2022/08/02 08:38:21;;;;;;;1.52;1.08;;;23.10;67.40;;;;;;4860921;29;20052;-76
2022/08/02 08:40:49;;;;;;;1.67;1.08;;;23.20;67.20;;;;;;4861254;29;20041;-74
2022/08/02 08:43:15;;;;;;;1.25;1.15;;;23.30;67.00;;;;;;4860480;29;20046;-74
2022/08/02 08:45:46;;;;;;;1.40;1.13;;;23.50;66.90;;;;;;4860914;29;20080;-74
2022/08/02 08:48:14;;;;;;;1.67;1.25;;;23.50;66.80;;;;;;4860876;29;20037;-74
2022/08/02 08:50:54;;;;;;;1.20;1.10;;;23.50;66.80;;;;;;4860863;29;20029;-74
2022/08/02 08:53:23;;;;;;;1.60;0.93;;;23.50;67.10;;;;;;4860807;29;20503;-74
2022/08/02 08:55:51;;;;;;;1.23;1.13;;;23.60;67.20;;;;;;4860519;29;20294;-74
2022/08/02 08:58:17;;;;;;;1.48;1.10;;;23.70;67.00;;;;;;4861182;29;20045;-74
2022/08/02 09:00:43;;;;;;;2.22;1.13;;;23.80;66.80;;;;;;4844021;29;20515;-73
2022/08/02 09:03:09;;;;;;;1.50;1.00;;;23.90;66.60;;;;;;4860863;29;20041;-74
2022/08/02 09:05:37;;;;;;;1.80;1.23;;;23.90;66.50;;;;;;4860739;29;20136;-74
2022/08/02 09:08:04;;;;;;;1.45;1.23;;;24.00;66.50;;;;;;4860663;29;20048;-74
2022/08/02 09:10:47;;;;;;;1.20;1.10;;;24.10;66.30;;;;;;4843952;29;20038;-74
2022/08/02 09:13:30;;;;;;;1.20;1.00;;;24.10;66.20;;;;;;4859916;29;20038;-74
2022/08/02 09:15:58;;;;;;;1.30;0.80;;;24.10;66.30;;;;;;4861019;29;20496;-74
2022/08/02 09:18:33;;;;;;;1.25;0.82;;;24.10;66.30;;;;;;4860486;29;20057;-74
2022/08/02 09:21:01;;;;;;;1.33;0.80;;;24.20;66.40;;;;;;4860944;29;20038;-74
2022/08/02 09:23:38;;;;;;;0.75;0.75;;;24.40;66.20;;;;;;4860086;29;20049;-75
2022/08/02 09:26:06;;;;;;;0.88;0.80;;;24.40;65.70;;;;;;4860123;29;20121;-74
2022/08/02 09:28:34;;;;;;;0.93;0.80;;;24.50;65.60;;;;;;4843587;29;20037;-74
2022/08/02 09:31:10;;;;;;;0.80;0.80;;;24.60;65.40;;;;;;4860574;29;20042;-74
2022/08/02 09:33:38;;;;;;;0.60;0.60;;;24.60;65.20;;;;;;4860157;29;20037;-75
2022/08/02 09:36:06;;;;;;;0.95;0.75;;;24.70;65.00;;;;;;4860431;29;20488;-75
2022/08/02 09:38:33;;;;;;;0.70;0.70;;;24.70;64.80;;;;;;4860019;29;20065;-76
2022/08/02 09:41:00;;;;;;;0.70;0.70;;;24.70;64.40;;;;;;4843443;29;20041;-75
2022/08/02 09:43:42;;;;;;;0.70;0.70;;;24.80;64.30;;;;;;4843514;29;20050;-76
2022/08/02 09:46:24;;;;;;;0.45;0.45;;;24.90;64.10;;;;;;4843400;29;20579;-76
2022/08/02 09:48:52;;;;;;;0.70;0.70;;;25.00;63.80;;;;;;4860169;29;20544;-75
2022/08/02 09:51:20;;;;;;;0.60;0.60;;;25.10;63.60;;;;;;4843594;29;20507;-76
2022/08/02 09:53:48;;;;;;;0.63;0.60;;;25.20;63.50;;;;;;4860101;29;20101;-75
2022/08/02 09:56:15;;;;;;;0.75;0.75;;;25.20;63.40;;;;;;4859048;29;20053;-75
2022/08/02 09:58:41;;;;;;;0.82;0.60;;;25.40;63.40;;;;;;4859816;29;20065;-76
2022/08/02 10:01:07;;;;;;;0.65;0.65;;;25.40;63.10;;;;;;4860039;29;20543;-75
2022/08/02 10:03:33;;;;;;;0.85;0.70;;;25.40;62.70;;;;;;4860461;29;20045;-75
2022/08/02 10:06:00;;;;;;;0.82;0.70;;;25.40;62.90;;;;;;4859738;29;20057;-75
2022/08/02 10:08:27;;;;;;;0.50;0.50;;;25.50;62.90;;;;;;4859525;29;20046;-75
2022/08/02 10:11:01;;;;;;;0.60;0.60;;;25.50;62.70;;;;;;4843260;29;20129;-76
2022/08/02 10:13:33;;;;;;;0.60;0.60;;;25.60;62.60;;;;;;4859751;29;20072;-76
2022/08/02 10:15:59;;;;;;;0.38;0.38;;;25.70;62.50;;;;;;4859748;29;20042;-75
2022/08/02 10:18:25;;;;;;;0.63;0.63;;;25.70;62.30;;;;;;4842987;29;20570;-76
2022/08/02 10:20:55;;;;;;;0.75;0.65;;;25.80;62.10;;;;;;4843240;29;20041;-76
2022/08/02 10:23:23;;;;;;;0.95;0.60;;;25.90;62.10;;;;;;4860193;29;20049;-76
2022/08/02 10:25:51;;;;;;;0.73;0.70;;;26.00;61.80;;;;;;4859513;29;20053;-76
2022/08/02 10:28:18;;;;;;;0.63;0.57;;;26.00;61.60;;;;;;4859349;29;20065;-76
2022/08/02 10:30:47;;;;;;;0.70;0.70;;;25.90;61.60;;;;;;4859140;29;20038;-75
2022/08/02 10:33:16;;;;;;;0.70;0.70;;;25.90;61.60;;;;;;4859454;29;20090;-75
2022/08/02 10:35:43;;;;;;;0.57;0.57;;;25.90;61.50;;;;;;4859270;29;20045;-74
2022/08/02 10:38:10;;;;;;;0.68;0.68;;;25.80;61.60;;;;;;4859549;29;20404;-75
2022/08/02 10:40:50;;;;;;;2.22;0.90;;;25.80;61.70;;;;;;4842876;29;20121;-74
2022/08/02 10:43:43;;;;;;;0.50;0.50;;;25.80;61.40;;;;;;4859358;29;20093;-74
2022/08/02 10:46:31;;;;;;;0.60;0.60;;;25.80;61.40;;;;;;4859052;29;20049;-74
2022/08/02 10:49:07;;;;;;;0.90;0.60;;;25.70;61.50;;;;;;4859398;29;20132;-74
2022/08/02 10:52:08;;;;;;;0.70;0.70;;;25.80;61.40;;;;;;4859724;29;20037;-75
2022/08/02 10:54:38;;;;;;;0.75;0.70;;;25.90;61.50;;;;;;4859627;29;20061;-74
2022/08/02 10:57:30;;;;;;;0.60;0.60;;;25.90;61.30;;;;;;4843021;29;20453;-75
2022/08/02 11:00:08;;;;;;;0.70;0.70;;;26.10;61.10;;;;;;4858382;29;20466;-74
2022/08/02 11:02:43;;;;;;;0.52;0.52;;;26.10;61.40;;;;;;4858817;29;20044;-73
2022/08/02 11:05:25;;;;;;;0.60;0.57;;;26.20;60.60;;;;;;4858713;29;20114;-74
2022/08/02 11:07:51;;;;;;;0.60;0.60;;;26.30;60.40;;;;;;4858455;29;20037;-74
2022/08/02 11:10:35;;;;;;;0.70;0.70;;;26.30;60.20;;;;;;4859112;29;20544;-74
2022/08/02 11:13:12;;;;;;;0.75;0.70;;;26.40;59.90;;;;;;4857559;29;20377;-74
2022/08/02 11:15:54;;;;;;;0.57;0.57;;;26.40;59.70;;;;;;4841314;29;20396;-74
2022/08/02 11:18:20;;;;;;;0.88;0.60;;;26.60;59.60;;;;;;4858763;29;20077;-75
2022/08/02 11:20:46;;;;;;;1.23;0.70;;;26.60;59.30;;;;;;4827173;29;20054;-75
2022/08/02 11:23:33;;;;;;;0.50;0.50;;;26.80;59.20;;;;;;4858812;29;20469;-75
2022/08/02 11:25:59;;;;;;;0.50;0.50;;;26.90;59.10;;;;;;4842396;29;20046;-74
2022/08/02 11:28:25;;;;;;;1.23;0.80;;;26.90;58.80;;;;;;4858724;29;20064;-74
2022/08/02 11:31:00;;;;;;;0.60;0.60;;;26.90;58.60;;;;;;4859180;29;20053;-74
2022/08/02 11:33:30;;;;;;;0.70;0.70;;;26.90;58.50;;;;;;4858764;29;20034;-74
2022/08/02 11:36:01;;;;;;;0.90;0.70;;;26.90;58.60;;;;;;4858499;29;20049;-74
2022/08/02 11:38:28;;;;;;;1.13;0.60;;;26.90;58.50;;;;;;4858461;29;20128;-73
2022/08/02 11:40:53;;;;;;;0.60;0.60;;;26.90;58.40;;;;;;4858686;29;20050;-74
2022/08/02 11:43:22;;;;;;;0.93;0.82;;;27.00;58.30;;;;;;4858433;29;20044;-74
2022/08/02 11:45:49;;;;;;;0.60;0.60;;;27.00;58.00;;;;;;4858465;29;20058;-74
2022/08/02 11:48:30;;;;;;;0.50;0.50;;;27.20;57.90;;;;;;4841721;29;20401;-74
2022/08/02 11:51:11;;;;;;;;;;;27.20;57.70;;;;;;4856999;29;20484;-74
2022/08/02 11:53:49;;;;;;;0.70;0.70;;;27.40;57.60;;;;;;4858081;29;19912;-74
2022/08/02 11:56:17;;;;;;;0.50;0.50;;;27.30;57.20;;;;;;4858454;29;20046;-74
2022/08/02 11:59:00;;;;;;;0.70;0.70;;;27.30;57.30;;;;;;4841612;29;20457;-74
2022/08/02 12:01:27;;;;;;;0.70;0.70;;;27.30;57.00;;;;;;4840385;29;20082;-75
2022/08/02 12:03:57;;;;;;;0.57;0.57;;;27.20;57.10;;;;;;4841753;29;20132;-75
2022/08/02 12:06:24;;;;;;;0.60;0.60;;;27.40;57.20;;;;;;4858233;29;20053;-75
2022/08/02 12:08:50;;;;;;;0.80;0.73;;;27.20;57.20;;;;;;4858053;29;20405;-74
2022/08/02 12:11:18;;;;;;;0.70;0.70;;;27.30;57.10;;;;;;4858222;29;20041;-74
2022/08/02 12:13:44;;;;;;;0.50;0.50;;;27.40;56.80;;;;;;4858105;29;20503;-75
2022/08/02 12:21:32;;;;;;;0.90;0.80;;;27.50;56.50;;;;;;4861256;29;20174;-74
2022/08/02 12:23:58;;;;;;;1.27;0.75;;;27.50;56.40;;;;;;4861336;29;20086;-74
2022/08/02 12:26:24;;;;;;;0.73;0.73;;;27.50;56.20;;;;;;4861211;29;20587;-75
2022/08/02 12:28:56;;;;;;;0.57;0.57;;;27.50;56.10;;;;;;4860690;29;20038;-75
2022/08/02 12:31:37;;;;;;;0.65;0.65;;;27.40;56.10;;;;;;4861097;29;20041;-75
2022/08/02 12:34:13;;;;;;;0.47;0.47;;;27.40;56.20;;;;;;4844635;29;20052;-74
2022/08/02 12:36:40;;;;;;;0.52;0.52;;;27.60;56.00;;;;;;4860766;29;20046;-75
2022/08/02 12:39:11;;;;;;;0.50;0.50;;;27.60;55.70;;;;;;4861054;29;20033;-75
2022/08/02 12:41:37;;;;;;;0.55;0.55;;;27.60;55.60;;;;;;4861713;29;20109;-74
2022/08/02 12:44:03;;;;;;;0.60;0.50;;;27.60;55.60;;;;;;4860864;29;20476;-74
2022/08/02 12:46:30;;;;;;;0.65;0.60;;;27.70;55.40;;;;;;4860623;29;20050;-74
2022/08/02 12:48:56;;;;;;;0.50;0.50;;;27.80;55.20;;;;;;4861200;29;20117;-74
2022/08/02 12:51:27;;;;;;;0.65;0.40;;;27.70;55.10;;;;;;4844279;29;20484;-74
2022/08/02 12:53:56;;;;;;;0.50;0.50;;;27.80;55.10;;;;;;4844789;29;20089;-75
2022/08/02 12:56:32;;;;;;;0.50;0.50;;;27.80;54.90;;;;;;4860964;29;20045;-75
2022/08/02 12:58:59;;;;;;;0.40;0.40;;;27.80;54.80;;;;;;4860848;29;20049;-75
2022/08/02 13:01:26;;;;;;;0.88;0.40;;;27.90;54.80;;;;;;4861079;29;20404;-74
2022/08/02 13:03:53;;;;;;;0.77;0.68;;;27.90;54.60;;;;;;4861356;29;20037;-75
2022/08/02 13:06:20;;;;;;;0.68;0.52;;;27.90;54.30;;;;;;4860428;29;20053;-74